• Join FlightAware (Why Join?)
  • Login
  • US Flag 
04:07PM EDT


 

Airport Tracker/Info


-or-


 

Live Flight TrackerFlight Track Log ✈ SWA750 ✈ 19-Apr-2013 ✈ KDEN - KLAX

Flight Track Log - Related Links

Times and Time Zones

All times are in EDT time to prevent confusion due to time zone crossing. See the SWA750 flight status page for this flight to view local times or setup timezone preferences in your user account.

Time Position Orientation Groundspeed Altitude Reporting Facility
EDT Latitude Longitude Course Direction KTS MPH feet Rate Location/Type
10:20PM 39.8406 -104.7567 250° West 165 190 7,300  Level Denver Center
10:21PM 39.8203 -104.8331 251° West 225 259 9,300 1,980 Climbing Denver Center
10:22PM 39.7908 -104.9258 248° West 277 319 11,400 2,580 Climbing Denver Center
10:23PM 39.7514 -105.0392 246° West 315 362 14,700 2,820 Climbing Denver Center
10:24PM 39.7133 -105.1517 246° West 338 389 17,300 2,400 Climbing Denver Center
10:25PM 39.6708 -105.2817 247° West 367 422 19,700 1,980 Climbing Denver Center
10:26PM 39.6001 -105.4412 250° West  Level FlightAware Approximate
10:26PM 39.6342 -105.4106 250° West 380 437 21,500  Level Denver Center
10:27PM 39.5931 -105.5456 248° West 403 464 24,000 2,220 Climbing Denver Center
10:28PM 39.5511 -105.6864 249° West 404 465 26,100 2,220 Climbing Denver Center
10:29PM 39.5108 -105.8211 249° West 397 457 28,700 2,220 Climbing Denver Center
10:31PM 39.4747 -105.9533 251° West 387 445 30,700 1,260 Climbing Denver Center
10:32PM 39.4344 -106.0872 249° West 395 455 31,300 840 Climbing Denver Center
10:33PM 39.3908 -106.2364 249° West 419 482 32,500 1,500 Climbing Denver Center
10:34PM 39.3422 -106.3914 248° West 417 480 34,400 1,380 Climbing Denver Center
10:35PM 39.3025 -106.5228 249° West 411 473 35,400 780 Climbing Denver Center
10:36PM 39.2622 -106.6550 249° West 414 476 36,000 240 Climbing Denver Center
10:37PM 39.1956 -106.7950 238° Southwest 410 472 36,000  Level Denver Center
10:38PM 39.1250 -106.9042 230° Southwest 414 476 36,000  Level Denver Center
10:39PM 39.0425 -107.0311 230° Southwest 414 476 36,000  Level Denver Center
10:40PM 38.9725 -107.1392 230° Southwest 411 473 36,000  Level Denver Center
10:41PM 38.8903 -107.2669 230° Southwest 413 475 36,000  Level Denver Center
10:42PM 38.8219 -107.3733 231° Southwest 406 467 36,000  Level Denver Center
10:43PM 38.7381 -107.4997 230° Southwest 415 478 36,000  Level Denver Center
10:44PM 38.6667 -107.6097 230° Southwest 417 480 36,000  Level Denver Center
10:45PM 38.5953 -107.7186 230° Southwest 418 481 36,000  Level Denver Center
10:46PM 38.5108 -107.8450 230° Southwest 419 482 36,000  Level Denver Center
10:47PM 38.4403 -107.9528 230° Southwest 414 476 36,000  Level Denver Center
10:48PM 38.3556 -108.0800 230° Southwest 419 482 36,000  Level Denver Center
10:49PM 38.2703 -108.1717 220° Southwest 426 490 36,000  Level Denver Center
10:50PM 38.1586 -108.2192 198° South 440 506 36,000  Level Denver Center
10:51PM 38.0228 -108.2603 193° South 443 510 36,000  Level Denver Center
10:52PM 37.9083 -108.2947 193° South 441 507 36,000  Level Denver Center
10:53PM 37.7742 -108.3367 194° South 445 512 36,000  Level Denver Center
10:54PM 37.6742 -108.4017 207° Southwest 429 494 36,000  Level Denver Center
10:55PM 37.6281 -108.5192 244° Southwest 396 456 36,000  Level Denver Center
10:56PM 37.5781 -108.6567 245° Southwest 389 448 36,000  Level Denver Center
10:57PM 37.5347 -108.7733 245° Southwest 385 443 36,000  Level Denver Center
10:58PM 37.4844 -108.9075 245° Southwest 382 440 36,000  Level Denver Center
10:59PM 37.4406 -109.0236 245° Southwest 384 442 36,000  Level Denver Center
11:01PM 37.3906 -109.1569 245° Southwest 380 437 36,000  Level Denver Center
11:02PM 37.3406 -109.2900 245° Southwest 378 435 36,000  Level Denver Center
11:03PM 37.2914 -109.4222 245° Southwest 375 432 36,000  Level Denver Center
11:04PM 37.2481 -109.5358 244° Southwest 377 434 36,000  Level Denver Center
11:05PM 37.1964 -109.6706 244° Southwest 383 441 36,000  Level Denver Center
11:06PM 37.1525 -109.7858 244° Southwest 382 440 36,000  Level Denver Center
11:07PM 37.1083 -109.9008 244° Southwest 383 441 36,000  Level Denver Center
11:08PM 37.0564 -110.0353 244° Southwest 385 443 36,000  Level Denver Center
11:09PM 37.0117 -110.1503 244° Southwest 383 441 36,000  Level Denver Center
11:10PM 36.9600 -110.2844 244° Southwest 388 447 36,000  Level Denver Center
11:11PM 36.9133 -110.4033 244° Southwest 383 441 36,000  Level Denver Center
11:12PM 36.8669 -110.5225 244° Southwest 380 437 36,000  Level Denver Center
11:13PM 36.8197 -110.6411 244° Southwest 381 438 36,000  Level Denver Center
11:14PM 36.7736 -110.7594 244° Southwest 379 436 36,000  Level Denver Center
11:15PM 36.7278 -110.8781 244° Southwest 380 437 36,000  Level Denver Center
11:16PM 36.6833 -110.9942 245° Southwest 376 433 36,000  Level Denver Center
11:17PM 36.6267 -111.1347 243° Southwest 376 433 36,000  Level Denver Center
11:18PM 36.5686 -111.2753 243° Southwest 378 435 36,000  Level Denver Center
11:19PM 36.5217 -111.3911 243° Southwest 377 434 36,000  Level Denver Center
11:20PM 36.4672 -111.5294 244° Southwest 372 428 36,000  Level Denver Center
11:21PM 36.4194 -111.6447 243° Southwest 374 430 36,000  Level Denver Center
11:22PM 36.3728 -111.7581 243° Southwest 371 427 36,000  Level Denver Center
11:23PM 36.3264 -111.8708 243° Southwest 368 423 36,000  Level Denver Center
11:24PM 36.2992 -111.9381 243° Southwest 368 423 36,000  Level Los Angeles Center
11:25PM 36.2533 -112.0506 243° Southwest 367 422 36,000  Level Los Angeles Center
11:26PM 36.2147 -112.1419 242° Southwest 371 427 36,000  Level Los Angeles Center
11:27PM 36.1578 -112.2800 243° Southwest 374 430 36,000  Level Los Angeles Center
11:28PM 36.1003 -112.4178 243° Southwest 375 432 36,000  Level Los Angeles Center
11:29PM 36.0528 -112.5325 243° Southwest 375 432 36,000  Level Los Angeles Center
11:30PM 36.0058 -112.6458 243° Southwest 372 428 36,000  Level Los Angeles Center
11:31PM 35.9583 -112.7572 242° Southwest 368 423 36,000  Level Los Angeles Center
11:32PM 35.9103 -112.8722 243° Southwest 368 423 36,000  Level Los Angeles Center
11:33PM 35.8644 -112.9831 243° Southwest 367 422 36,000  Level Los Angeles Center
11:34PM 35.8161 -113.0944 242° Southwest 372 428 36,000  Level Los Angeles Center
11:35PM 35.7686 -113.2061 242° Southwest 373 429 36,000  Level Los Angeles Center
11:36PM 35.7106 -113.3428 242° Southwest 378 435 36,000  Level Los Angeles Center
11:37PM 35.6622 -113.4564 242° Southwest 379 436 36,000  Level Los Angeles Center
11:38PM 35.6139 -113.5686 242° Southwest 376 433 36,000  Level Los Angeles Center
11:39PM 35.5689 -113.6817 244° Southwest 373 429 36,000  Level Los Angeles Center
11:40PM 35.5233 -113.7950 244° Southwest 372 428 36,000  Level Los Angeles Center
11:42PM 35.4772 -113.9072 243° Southwest 371 427 36,000  Level Los Angeles Center
11:43PM 35.4208 -114.0444 243° Southwest 376 433 36,000  Level Los Angeles Center
11:44PM 35.3736 -114.1597 243° Southwest 377 434 36,000  Level Los Angeles Center
11:45PM 35.3253 -114.2772 243° Southwest 382 440 36,000  Level Los Angeles Center
11:46PM 35.2767 -114.3961 243° Southwest 388 447 36,000  Level Los Angeles Center
11:47PM 35.2278 -114.5147 243° Southwest 390 449 36,000  Level Los Angeles Center
11:48PM 35.1783 -114.6311 243° Southwest 386 444 36,000  Level Los Angeles Center
11:49PM 35.1294 -114.7486 243° Southwest 386 444 36,000  Level Los Angeles Center
11:50PM 35.0706 -114.8903 243° Southwest 388 447 36,000  Level Los Angeles Center
11:51PM 35.0217 -115.0064 243° Southwest 387 445 36,000  Level Los Angeles Center
11:52PM 34.9714 -115.1244 243° Southwest 391 450 36,000  Level Los Angeles Center
11:53PM 34.9222 -115.2428 243° Southwest 392 451 36,000  Level Los Angeles Center
11:54PM 34.8725 -115.3597 243° Southwest 388 447 36,000 -480 Level Los Angeles Center
11:55PM 34.8217 -115.4783 242° Southwest 392 451 35,100 -1,020 Descending Los Angeles Center
11:56PM 34.7761 -115.5839 242° Southwest 382 440 34,000 -1,140 Descending Los Angeles Center
11:57PM 34.7167 -115.7217 242° Southwest 386 444 32,800 -1,080 Descending Los Angeles Center
11:58PM 34.6686 -115.8342 243° Southwest 377 434 31,800 -960 Descending Los Angeles Center
11:59PM 34.6208 -115.9461 243° Southwest 373 429 30,900 -900 Descending Los Angeles Center
12:00AM 34.5694 -116.0633 242° Southwest 388 447 30,000 -780 Descending Los Angeles Center
12:01AM 34.5183 -116.1800 242° Southwest 390 449 29,400 -780 Descending Los Angeles Center
12:02AM 34.4686 -116.2950 242° Southwest 386 444 28,400 -1,020 Descending Los Angeles Center
12:03AM 34.4178 -116.4092 242° Southwest 386 444 27,400 -1,020 Descending Los Angeles Center
12:04AM 34.3675 -116.5253 242° Southwest 388 447 26,400 -1,020 Descending Los Angeles Center
12:05AM 34.3189 -116.6353 242° Southwest 375 432 25,400 -1,500 Descending Los Angeles Center
12:06AM 34.2597 -116.7661 241° Southwest 369 425 23,400 -1,560 Descending Los Angeles Center
12:07AM 34.2119 -116.8733 242° Southwest 364 419 22,300 -1,440 Descending Los Angeles Center
12:08AM 34.1653 -116.9792 242° Southwest 357 411 20,500 -1,800 Descending Los Angeles Center
12:09AM 34.1197 -117.0800 241° Southwest 345 397 18,700 -1,800 Descending Los Angeles Center
12:10AM 34.0667 -117.2000 242° Southwest 337 388 16,800 -1,800 Descending Southern California TRACON
12:11AM 34.0500 -117.3000 259° West 346 398 15,100 -1,860 Descending Southern California TRACON
12:12AM 34.0333 -117.4167 260° West 329 379 13,100 -1,800 Descending Southern California TRACON
12:13AM 34.0333 -117.5167 270° West 307 353 11,500 -1,440 Descending Southern California TRACON
12:14AM 34.0333 -117.6167 270° West 302 348 10,400 -900 Descending Southern California TRACON
12:15AM 34.0167 -117.7167 259° West 258 297 9,800 -900 Descending Southern California TRACON
12:16AM 34.0167 -117.8000 270° West 262 302 8,600 -1,200 Descending Southern California TRACON
12:17AM 34.0000 -117.8833 256° West 267 307 7,400 -1,200 Descending Southern California TRACON
12:18AM 34.0000 -117.9667 270° West 258 297 6,300 -960 Descending Southern California TRACON
12:19AM 33.9833 -118.0500 256° West 227 261 5,500 -720 Descending Southern California TRACON
12:20AM 33.9833 -118.1167 270° West 191 220 4,900 -720 Descending Southern California TRACON
12:21AM 33.9667 -118.1833 253° West 177 204 4,100 -840 Descending Southern California TRACON
12:21AM 33.9731 -118.1928 309° West 180 207 3,900 -1,020 Descending Los Angeles Center
12:22AM 33.9672 -118.2533 263° West 180 207 2,800 -1,080 Descending Los Angeles Center
12:24AM 33.9617 -118.3122 264° West 182 209 1,800 -900 Descending Los Angeles Center
12:25AM 33.9575 -118.3611 264° West 164 189 1,000 -840 Descending Los Angeles Center
12:26AM 33.9519 -118.4086 262° West 152 175 100 -900 Descending Los Angeles Center
12:28AM 33.9425 -118.4081 180° South  Level Estimated